Time;durP1;ratioP1;P1;durP2;ratioP2;P2;SDS_P1;SDS_P2;PMS_P1;PMS_P2;Temp;Humidity;BMP_temperature;BMP_pressure;BME280_temperature;BME280_humidity;BME280_pressure;Samples;Min_cycle;Max_cycle;Signal;HPM_P1;HPM_P2
2022/02/10 00:16:50;;;;;;;0.43;0.03;;;;;;;19.80;46.05;100350.66;5054587;28;20035;-63
2022/02/10 00:19:41;;;;;;;0.52;0.10;;;;;;;19.74;45.83;100343.25;5051348;28;20037;-62
2022/02/10 00:24:48;;;;;;;0.73;0.20;;;;;;;19.73;45.80;100339.69;5034779;28;20378;-62
2022/02/10 00:35:30;;;;;;;0.30;0.10;;;;;;;19.64;45.44;100338.09;5054268;28;20040;-62
2022/02/10 00:37:59;;;;;;;0.30;0.13;;;;;;;19.60;45.54;100331.34;5054115;28;20021;-62
2022/02/10 00:40:29;;;;;;;1.40;0.30;;;;;;;19.58;45.08;100340.75;5041821;28;20068;-62
2022/02/10 00:42:57;;;;;;;1.02;0.22;;;;;;;19.60;44.95;100344.13;5033940;28;20032;-62
2022/02/10 00:45:23;;;;;;;0.43;0.22;;;;;;;19.56;46.10;100337.38;5033308;28;20108;-62
2022/02/10 00:47:55;;;;;;;0.47;0.10;;;;;;;19.53;44.76;100330.38;5033916;28;20029;-62
2022/02/10 00:50:23;;;;;;;0.93;0.20;;;;;;;19.57;45.30;100339.06;5045219;28;20028;-63
2022/02/10 00:52:50;;;;;;;0.30;0.00;;;;;;;19.55;44.86;100330.22;5056972;22;20453;-62
2022/02/10 00:55:22;;;;;;;1.38;0.25;;;;;;;19.52;45.27;100329.53;5034011;28;20040;-63
2022/02/10 00:57:47;;;;;;;2.17;1.15;;;;;;;19.48;45.60;100330.97;5033724;28;20040;-62
2022/02/10 01:24:32;;;;;;;0.30;0.20;;;;;;;19.37;44.84;100334.19;5011333;28;20029;-63
2022/02/10 01:29:44;;;;;;;0.30;0.00;;;;;;;19.35;44.96;100335.41;5005769;28;20537;-63
2022/02/10 01:32:10;;;;;;;0.90;0.20;;;;;;;19.35;44.95;100341.69;4991624;28;20034;-62
2022/02/10 01:34:42;;;;;;;0.47;0.30;;;;;;;19.33;44.85;100338.31;4991092;28;20092;-62
2022/02/10 01:37:08;;;;;;;1.20;0.17;;;;;;;19.32;45.38;100331.19;4991557;28;20114;-62
2022/02/10 01:39:40;;;;;;;1.05;0.17;;;;;;;19.33;44.51;100335.59;4994605;28;20120;-62
2022/02/10 02:03:39;;;;;;;0.47;0.28;;;;;;;19.25;45.37;100319.34;5052269;28;20031;-62
2022/02/10 02:06:18;;;;;;;0.90;0.17;;;;;;;19.21;45.25;100320.75;5033197;28;20018;-62
2022/02/10 02:08:43;;;;;;;2.42;0.15;;;;;;;19.21;45.61;100312.59;5032262;28;20029;-62
2022/02/10 02:11:09;;;;;;;0.30;0.30;;;;;;;19.21;45.79;100312.59;5046309;28;20028;-63
2022/02/10 02:13:34;;;;;;;2.22;0.43;;;;;;;19.22;44.72;100314.28;5032286;28;20130;-62
2022/02/10 02:16:00;;;;;;;0.80;0.30;;;;;;;19.19;44.71;100311.94;5032587;28;20479;-63
2022/02/10 02:18:26;;;;;;;1.05;0.30;;;;;;;19.25;44.82;100313.88;5032504;28;20037;-62
2022/02/10 02:20:54;;;;;;;0.32;0.10;;;;;;;19.16;44.46;100304.13;5045579;28;20051;-62
2022/02/10 02:23:22;;;;;;;0.57;0.20;;;;;;;19.17;45.49;100289.47;5041532;28;20041;-63
2022/02/10 02:25:51;;;;;;;0.73;0.15;;;;;;;19.16;44.44;100282.34;5032209;28;20096;-62
2022/02/10 02:28:17;;;;;;;0.10;0.10;;;;;;;19.18;45.26;100296.63;5032448;28;20096;-62
2022/02/10 02:30:48;;;;;;;1.10;0.22;;;;;;;19.17;45.10;100284.03;5043881;28;20024;-62
2022/02/10 02:38:46;;;;;;;0.40;0.25;;;;;;;19.14;44.92;100268.88;5052247;28;20388;-62
2022/02/10 03:06:19;;;;;;;0.50;0.10;;;;;;;19.05;44.33;100269.19;5052126;28;20064;-62
2022/02/10 03:08:24;;;;;;;0.65;0.13;;;;;;;19.04;45.82;100262.06;5050746;28;20495;-62
2022/02/10 03:13:22;;;;;;;0.52;0.20;;;;;;;19.03;44.62;100255.75;5036252;28;20044;-62
2022/02/10 03:21:02;;;;;;;0.85;0.30;;;;;;;19.01;44.65;100246.94;5046545;28;20398;-62
2022/02/10 04:13:10;;;;;;;0.27;0.00;;;;;;;19.50;49.08;100198.03;4934829;29;20094;-62
2022/02/10 04:21:53;;;;;;;1.85;0.20;;;;;;;19.78;52.07;100189.94;4933927;29;20034;-62
2022/02/10 04:24:36;;;;;;;0.85;0.10;;;;;;;19.86;53.39;100191.69;4934594;29;20550;-63
2022/02/10 04:27:17;;;;;;;0.47;0.10;;;;;;;19.91;53.62;100189.22;4934868;29;20112;-62
2022/02/10 04:30:07;;;;;;;1.25;0.20;;;;;;;19.95;54.98;100192.38;4945882;29;20085;-62
2022/02/10 04:37:17;;;;;;;0.95;0.28;;;;;;;19.96;55.72;100194.06;4953803;29;20027;-62
2022/02/10 04:43:56;;;;;;;0.85;0.10;;;;;;;20.09;56.33;100192.28;4941690;28;20761;-62
2022/02/10 04:57:29;;;;;;;0.68;0.20;;;;;;;20.37;55.78;100183.25;5054178;28;20064;-62
2022/02/10 05:00:14;;;;;;;0.80;0.20;;;;;;;20.41;55.18;100173.66;5040961;28;20109;-62
2022/02/10 05:16:25;;;;;;;0.75;0.10;;;;;;;22.72;50.87;100151.25;5040674;28;20067;-62
2022/02/10 05:32:42;;;;;;;0.80;0.20;;;;;;;23.27;48.83;100143.41;5052857;28;20261;-63
2022/02/10 05:35:32;;;;;;;0.80;0.20;;;;;;;23.31;49.11;100158.34;5051828;28;20472;-63
2022/02/10 05:38:08;;;;;;;0.60;0.10;;;;;;;23.41;49.00;100161.47;5032722;28;20557;-63
2022/02/10 05:46:05;;;;;;;0.20;0.10;;;;;;;23.55;49.25;100152.09;5038829;28;20059;-63
2022/02/10 07:11:00;;;;;;;1.30;0.40;;;;;;;22.23;40.55;100151.81;5055794;28;20074;-63
2022/02/10 07:13:51;;;;;;;0.70;0.20;;;;;;;22.25;41.07;100144.22;5055813;28;20421;-62
2022/02/10 08:00:06;;;;;;;0.35;0.10;;;;;;;22.47;40.99;100193.03;4993297;28;20506;-63
2022/02/10 08:52:21;;;;;;;0.22;0.10;;;;;;;22.56;41.02;100176.38;5032856;28;20157;-63
2022/02/10 09:00:02;;;;;;;2.17;0.20;;;;;;;22.64;40.91;100181.63;5028614;28;20079;-63
2022/02/10 09:11:08;;;;;;;1.13;0.00;;;;;;;22.53;40.70;100172.19;5033070;28;20059;-63
2022/02/10 09:18:28;;;;;;;0.47;0.13;;;;;;;22.61;40.80;100173.84;5032902;28;20036;-63
2022/02/10 09:54:29;;;;;;;1.35;0.10;;;;;;;22.68;41.47;100193.84;5037463;28;20124;-65
2022/02/10 09:56:23;;;;;;;1.55;0.30;;;;;;;22.65;41.04;100191.50;5052472;28;20040;-65
2022/02/10 10:01:39;;;;;;;0.70;0.30;;;;;;;22.69;42.02;100192.78;5034417;28;20477;-65
2022/02/10 10:04:17;;;;;;;0.50;0.30;;;;;;;22.66;41.33;100190.47;5032139;28;20439;-65
2022/02/10 10:07:01;;;;;;;1.55;0.20;;;;;;;22.65;42.04;100194.25;5031495;28;20029;-66
2022/02/10 10:09:55;;;;;;;1.05;0.10;;;;;;;22.69;42.00;100211.97;5031554;28;20141;-66
2022/02/10 10:20:48;;;;;;;1.85;0.25;;;;;;;22.71;41.34;100198.91;5046591;28;20037;-65
2022/02/10 10:48:28;;;;;;;0.50;0.17;;;;;;;22.68;42.59;100202.06;5048834;28;20116;-65
2022/02/10 10:52:28;;;;;;;2.15;0.30;;;;;;;22.67;42.91;100192.97;5028998;28;20037;-64
2022/02/10 10:57:28;;;;;;;0.90;0.30;;;;;;;22.72;43.35;100197.84;5031307;28;20028;-65
2022/02/10 11:39:21;;;;;;;1.08;0.30;;;;;;;22.83;44.87;100167.03;5038218;28;20037;-65
2022/02/10 11:42:06;;;;;;;;;;;;;;;22.79;44.60;100163.00;4984525;28;20449;-64
2022/02/10 12:31:17;;;;;;;0.80;0.30;;;;;;;23.02;46.39;100179.84;4948663;29;20163;-66
2022/02/10 12:42:57;;;;;;;0.45;0.20;;;;;;;23.01;46.20;100180.91;5010325;28;20033;-67
2022/02/10 13:27:49;;;;;;;0.82;0.40;;;;;;;23.00;44.84;100189.31;5053211;28;20108;-66
2022/02/10 13:34:02;;;;;;;1.55;0.50;;;;;;;22.92;45.48;100197.78;5052981;28;20487;-66
2022/02/10 14:09:06;;;;;;;1.23;0.30;;;;;;;23.04;44.02;100196.06;5033125;28;20040;-66
2022/02/10 14:10:06;;;;;;;1.80;0.20;;;;;;;22.96;44.49;100188.91;4990242;28;20044;-65
2022/02/10 14:17:46;;;;;;;0.70;0.10;;;;;;;23.00;44.05;100179.19;4995565;28;20473;-66
2022/02/10 14:20:32;;;;;;;;;;;;;;;23.04;43.55;100183.19;5010348;28;20033;-66
2022/02/10 14:23:06;;;;;;;1.08;0.10;;;;;;;23.00;43.33;100192.03;4993676;28;20515;-65
2022/02/10 14:28:09;;;;;;;0.10;0.03;;;;;;;22.98;43.41;100199.66;4991836;28;20120;-65
2022/02/10 14:30:34;;;;;;;0.52;0.20;;;;;;;23.04;42.90;100193.31;5000590;28;20113;-65
2022/02/10 14:33:00;;;;;;;0.65;0.20;;;;;;;22.99;43.46;100207.66;4990738;28;20595;-66
2022/02/10 14:35:33;;;;;;;0.20;0.10;;;;;;;23.01;43.46;100201.94;5012385;28;20496;-65
2022/02/10 15:10:40;;;;;;;0.47;0.08;;;;;;;22.97;43.44;100209.78;5032667;28;20065;-66
2022/02/10 15:31:11;;;;;;;0.90;0.10;;;;;;;23.04;42.79;100228.97;5011729;28;20108;-67
2022/02/10 16:18:21;;;;;;;1.65;0.47;;;;;;;22.96;42.66;100257.44;5054669;28;20032;-66
2022/02/10 16:20:51;;;;;;;0.95;0.20;;;;;;;22.94;43.25;100259.56;5044647;28;20481;-66
2022/02/10 16:23:18;;;;;;;0.40;0.22;;;;;;;22.95;42.93;100258.50;5034622;28;20030;-66
2022/02/10 16:25:50;;;;;;;1.23;0.55;;;;;;;22.97;43.11;100261.00;5034471;28;20425;-66
2022/02/10 16:30:47;;;;;;;1.55;0.20;;;;;;;22.97;42.53;100264.59;5042079;28;20120;-66
2022/02/10 16:33:12;;;;;;;0.63;0.20;;;;;;;22.94;43.03;100262.28;5054783;28;20124;-66
2022/02/10 16:35:39;;;;;;;0.70;0.30;;;;;;;22.90;42.92;100257.47;5054185;28;20047;-66
2022/02/10 16:38:05;;;;;;;0.70;0.17;;;;;;;22.96;42.66;100262.91;5054437;28;20104;-66
2022/02/10 16:40:30;;;;;;;1.02;0.20;;;;;;;22.92;43.05;100260.81;5048543;28;20060;-67
2022/02/10 16:42:56;;;;;;;0.63;0.25;;;;;;;22.95;43.39;100255.75;5034161;28;20060;-66
2022/02/10 16:45:22;;;;;;;0.30;0.10;;;;;;;22.89;42.58;100251.16;5034352;28;20030;-66
2022/02/10 16:47:48;;;;;;;1.55;0.30;;;;;;;22.93;42.47;100246.91;5034333;28;20022;-66
2022/02/10 16:50:13;;;;;;;0.98;0.20;;;;;;;22.97;42.66;100259.13;5035328;28;20068;-66
2022/02/10 16:52:44;;;;;;;1.58;0.30;;;;;;;22.95;42.74;100263.97;5053714;28;20047;-67
2022/02/10 16:55:41;;;;;;;1.25;0.43;;;;;;;22.91;42.64;100281.91;5054120;28;20075;-66
2022/02/10 17:27:21;;;;;;;2.28;0.95;;;;;;;22.93;42.72;100295.41;5033449;28;20488;-66
2022/02/10 17:46:06;;;;;;;1.47;0.30;;;;;;;22.90;42.36;100301.31;5011078;28;20036;-65
2022/02/10 17:53:48;;;;;;;1.20;0.30;;;;;;;22.92;42.68;100310.16;5030167;28;20042;-66
2022/02/10 17:56:14;;;;;;;0.75;0.20;;;;;;;22.91;42.28;100314.81;5030641;28;20113;-66
2022/02/10 17:58:39;;;;;;;0.88;0.25;;;;;;;22.93;41.99;100317.31;5030142;28;20500;-66
2022/02/10 18:01:06;;;;;;;1.80;0.30;;;;;;;22.90;42.34;100318.59;5022758;28;20053;-66
2022/02/10 18:03:32;;;;;;;1.38;0.35;;;;;;;22.92;42.35;100321.13;5010444;28;20488;-66
2022/02/10 18:08:44;;;;;;;0.38;0.20;;;;;;;22.91;42.21;100314.81;5010534;28;20026;-66
2022/02/10 18:11:42;;;;;;;1.55;0.35;;;;;;;22.93;42.10;100312.69;5003416;28;20026;-66
2022/02/10 18:14:06;;;;;;;0.93;0.20;;;;;;;22.93;42.33;100317.31;5052542;28;20526;-66
2022/02/10 18:16:54;;;;;;;1.30;0.22;;;;;;;22.91;42.39;100328.50;5052354;28;20115;-66
2022/02/10 18:19:30;;;;;;;0.80;0.20;;;;;;;22.95;42.10;100327.00;5052752;28;20036;-66
2022/02/10 18:22:25;;;;;;;0.63;0.17;;;;;;;22.95;42.07;100329.75;5036668;28;20392;-66
2022/02/10 18:24:52;;;;;;;1.63;0.38;;;;;;;22.90;42.49;100328.72;5012212;28;20111;-66
2022/02/10 18:27:29;;;;;;;1.80;0.30;;;;;;;22.88;42.28;100334.44;5012829;28;20138;-66
2022/02/10 19:10:21;;;;;;;1.15;0.17;;;;;;;22.87;42.25;100334.63;5052294;28;20024;-68
2022/02/10 19:12:49;;;;;;;0.77;0.30;;;;;;;22.89;41.89;100338.84;5041450;28;20040;-65
2022/02/10 19:17:42;;;;;;;1.50;0.20;;;;;;;22.91;41.91;100344.97;5032141;28;20034;-66
2022/02/10 19:20:08;;;;;;;1.08;0.20;;;;;;;22.88;41.93;100348.13;5032027;28;20373;-66
2022/02/10 19:22:35;;;;;;;0.68;0.10;;;;;;;22.88;42.20;100364.56;5030333;28;20044;-66
2022/02/10 19:25:00;;;;;;;1.58;0.28;;;;;;;22.87;41.51;100357.41;5031865;28;20052;-66
2022/02/10 19:27:25;;;;;;;1.45;0.22;;;;;;;22.88;41.69;100353.59;5031932;28;20057;-66
2022/02/10 19:29:57;;;;;;;0.30;0.20;;;;;;;22.93;41.48;100362.03;5036736;28;20055;-66
2022/02/10 19:32:27;;;;;;;1.65;0.30;;;;;;;22.89;41.70;100355.28;5041459;28;20048;-66
2022/02/10 19:34:54;;;;;;;0.47;0.20;;;;;;;22.88;41.78;100348.13;5031641;28;20022;-65
2022/02/10 19:37:19;;;;;;;0.80;0.20;;;;;;;22.88;42.05;100353.59;5031902;28;20083;-66
2022/02/10 19:39:51;;;;;;;0.47;0.10;;;;;;;22.90;41.84;100342.44;5031608;28;20101;-65
2022/02/10 19:42:16;;;;;;;1.77;0.25;;;;;;;22.93;41.29;100378.47;5032885;28;20061;-66
2022/02/10 19:44:42;;;;;;;0.98;0.40;;;;;;;22.93;41.50;100375.72;5031384;28;20053;-66
2022/02/10 19:47:07;;;;;;;1.30;0.20;;;;;;;22.89;41.70;100377.22;5031775;28;20025;-66
2022/02/10 19:49:34;;;;;;;1.33;0.20;;;;;;;22.83;42.06;100372.56;5031636;28;20029;-66
2022/02/10 19:51:59;;;;;;;1.65;0.40;;;;;;;22.92;41.84;100382.28;5034114;28;20045;-66
2022/02/10 19:54:28;;;;;;;0.38;0.20;;;;;;;22.89;41.54;100388.19;5035167;28;20116;-66
2022/02/10 19:56:56;;;;;;;1.60;0.20;;;;;;;22.92;41.10;100390.50;5035012;28;20037;-66
2022/02/10 19:59:27;;;;;;;1.40;0.68;;;;;;;22.88;41.97;100381.03;5035161;28;20436;-66
2022/02/10 20:01:53;;;;;;;0.47;0.30;;;;;;;22.85;41.56;100380.59;5053611;28;20029;-66
2022/02/10 20:04:20;;;;;;;1.45;0.22;;;;;;;22.88;41.69;100381.03;5054844;28;20469;-66
2022/02/10 20:06:46;;;;;;;1.20;0.30;;;;;;;22.92;41.42;100392.41;5054591;28;20048;-66
2022/02/10 20:09:13;;;;;;;0.63;0.20;;;;;;;22.91;41.48;100386.06;5054979;28;20033;-65
2022/02/10 20:11:38;;;;;;;1.20;0.40;;;;;;;22.89;41.79;100390.91;5054631;28;20053;-65
2022/02/10 20:14:03;;;;;;;2.85;0.40;;;;;;;22.88;41.26;100391.97;5054838;28;20053;-66
2022/02/10 20:16:29;;;;;;;0.88;0.47;;;;;;;22.89;41.14;100393.66;5054655;28;20032;-66
2022/02/10 20:18:54;;;;;;;0.95;0.28;;;;;;;22.94;41.58;100387.53;5054545;28;20081;-66
2022/02/10 20:21:20;;;;;;;0.98;0.17;;;;;;;22.88;41.23;100391.97;5043771;28;20032;-66
2022/02/10 20:23:46;;;;;;;1.73;0.32;;;;;;;22.89;41.42;100396.41;5054320;28;20025;-66
2022/02/10 20:26:13;;;;;;;2.08;0.57;;;;;;;22.87;41.88;100406.75;5054642;28;20049;-66
2022/02/10 20:28:39;;;;;;;1.15;0.30;;;;;;;22.86;42.01;100406.97;5054173;28;20021;-66
2022/02/10 20:31:04;;;;;;;0.88;0.25;;;;;;;22.88;41.94;100411.16;5054535;28;20218;-66
2022/02/10 20:33:31;;;;;;;0.90;0.30;;;;;;;22.88;41.51;100419.38;5054401;28;20024;-66
2022/02/10 20:36:00;;;;;;;0.88;0.20;;;;;;;22.90;41.16;100417.28;5054342;28;20365;-66
2022/02/10 20:38:28;;;;;;;0.80;0.50;;;;;;;22.90;41.00;100422.75;5054321;28;20020;-66
2022/02/10 20:41:05;;;;;;;1.95;0.50;;;;;;;22.90;41.26;100422.75;5049858;28;20026;-66
2022/02/10 20:43:31;;;;;;;1.85;0.50;;;;;;;22.91;41.38;100423.59;5034220;28;20096;-66
2022/02/10 20:46:01;;;;;;;0.98;0.25;;;;;;;22.94;40.46;100426.75;5034272;28;20025;-66
2022/02/10 20:48:29;;;;;;;0.93;0.30;;;;;;;22.87;41.43;100423.19;5034181;28;20494;-66
2022/02/10 20:50:56;;;;;;;0.52;0.32;;;;;;;22.87;41.22;100417.69;5034574;28;20037;-66
2022/02/10 20:53:27;;;;;;;0.30;0.15;;;;;;;22.87;41.42;100423.19;5034251;28;20052;-66
2022/02/10 20:55:54;;;;;;;2.53;0.38;;;;;;;22.90;40.91;100428.25;5034233;28;20059;-66
2022/02/10 20:58:23;;;;;;;0.63;0.25;;;;;;;22.86;41.49;100437.94;5034183;28;20056;-66
2022/02/10 21:00:50;;;;;;;1.10;0.28;;;;;;;22.90;41.34;100428.25;5033614;28;20048;-65
2022/02/10 21:03:16;;;;;;;0.65;0.30;;;;;;;22.87;41.43;100442.38;5032967;28;20032;-66
2022/02/10 21:05:43;;;;;;;0.47;0.20;;;;;;;22.89;41.21;100436.69;5047340;28;20032;-66
2022/02/10 21:08:14;;;;;;;1.30;0.22;;;;;;;22.89;41.62;100437.53;5053813;28;20031;-66
2022/02/10 21:10:40;;;;;;;0.73;0.20;;;;;;;22.88;41.22;100435.84;5053302;28;20103;-66
2022/02/10 21:13:08;;;;;;;1.48;0.30;;;;;;;22.86;41.62;100437.94;5052451;28;20115;-66
2022/02/10 21:15:41;;;;;;;1.65;0.50;;;;;;;22.89;40.93;100443.00;5053555;28;20024;-66
2022/02/10 21:18:07;;;;;;;1.05;0.40;;;;;;;22.88;40.95;100445.97;5053601;28;20056;-66
2022/02/10 21:20:34;;;;;;;0.90;0.30;;;;;;;22.91;40.93;100445.53;5053338;28;20388;-66
2022/02/10 21:23:13;;;;;;;0.47;0.30;;;;;;;22.90;40.86;100447.44;5053362;28;20025;-66
2022/02/10 21:25:40;;;;;;;0.88;0.30;;;;;;;22.89;40.69;100445.75;5051935;28;20376;-66
2022/02/10 21:28:22;;;;;;;0.75;0.30;;;;;;;22.89;41.08;100443.00;5052126;28;20056;-66
2022/02/10 21:30:52;;;;;;;0.85;0.40;;;;;;;22.87;41.55;100445.13;5045016;28;20449;-66
2022/02/10 21:33:26;;;;;;;1.35;0.28;;;;;;;22.83;41.23;100440.25;5033482;28;20548;-67
2022/02/10 21:36:47;;;;;;;0.55;0.20;;;;;;;22.80;40.78;100455.19;5033239;28;20581;-66
2022/02/10 21:38:46;;;;;;;1.42;0.47;;;;;;;22.81;41.10;100454.13;5024674;28;20076;-66
2022/02/10 21:54:54;;;;;;;1.40;0.28;;;;;;;22.87;41.12;100461.56;5032673;28;20512;-66
2022/02/10 22:18:48;;;;;;;1.05;0.17;;;;;;;22.89;40.77;100496.97;5029976;28;20261;-66
2022/02/10 22:21:22;;;;;;;1.90;0.30;;;;;;;22.84;41.03;100494.00;5030196;28;20109;-66
2022/02/10 22:23:48;;;;;;;1.85;0.35;;;;;;;22.80;41.52;100493.53;5017158;28;20478;-66
2022/02/10 22:26:24;;;;;;;1.73;0.20;;;;;;;22.81;40.89;100500.72;5010471;28;20033;-66
2022/02/10 22:36:47;;;;;;;2.72;0.40;;;;;;;22.88;41.02;100509.84;5029926;28;20389;-65
2022/02/10 22:39:14;;;;;;;1.00;0.10;;;;;;;22.83;40.67;100508.75;5030002;28;20036;-65
2022/02/10 22:41:39;;;;;;;1.50;0.30;;;;;;;22.88;40.27;100512.56;5038244;28;20032;-65
2022/02/10 22:44:06;;;;;;;0.80;0.30;;;;;;;22.86;40.95;100517.44;5052220;28;20076;-66
2022/02/10 22:46:32;;;;;;;0.63;0.30;;;;;;;22.90;40.03;100515.94;5051944;28;20062;-66
2022/02/10 22:48:59;;;;;;;0.47;0.10;;;;;;;22.88;41.02;100509.00;5052115;28;20067;-66
2022/02/10 22:51:26;;;;;;;0.40;0.17;;;;;;;22.90;40.39;100515.94;5052193;28;20447;-66
2022/02/10 22:53:53;;;;;;;0.65;0.30;;;;;;;22.87;40.26;100521.84;5051849;28;20477;-66
2022/02/10 22:56:23;;;;;;;0.88;0.20;;;;;;;22.93;40.69;100520.16;5050880;28;20025;-66
2022/02/10 22:58:53;;;;;;;0.60;0.20;;;;;;;22.88;40.23;100523.53;5042340;28;20419;-66
2022/02/10 23:01:18;;;;;;;1.02;0.20;;;;;;;21.92;42.29;100534.53;5032230;28;20026;-66
2022/02/10 23:03:44;;;;;;;0.57;0.20;;;;;;;21.22;43.40;100531.91;5031853;28;20079;-66
2022/02/10 23:06:11;;;;;;;1.27;0.47;;;;;;;21.06;43.35;100533.03;5032238;28;20029;-66
2022/02/10 23:08:37;;;;;;;0.35;0.30;;;;;;;20.87;43.91;100530.94;5031811;28;20021;-66
2022/02/10 23:11:03;;;;;;;0.80;0.20;;;;;;;20.77;44.25;100527.69;5032076;28;20531;-66
2022/02/10 23:13:32;;;;;;;1.33;0.40;;;;;;;20.59;44.44;100548.09;5032037;28;20053;-66
2022/02/10 23:16:01;;;;;;;0.70;0.20;;;;;;;20.51;44.45;100555.56;5032075;28;20022;-66
2022/02/10 23:18:29;;;;;;;1.25;0.40;;;;;;;20.40;44.16;100556.88;5031983;28;20027;-66
2022/02/10 23:20:56;;;;;;;1.30;0.47;;;;;;;20.32;44.89;100546.94;5031832;28;20075;-66
2022/02/10 23:23:24;;;;;;;0.57;0.13;;;;;;;20.23;44.72;100552.66;5031947;28;20385;-66
2022/02/10 23:25:51;;;;;;;1.35;0.25;;;;;;;20.17;44.77;100553.44;5032475;28;20040;-66
2022/02/10 23:28:20;;;;;;;0.47;0.20;;;;;;;20.16;44.68;100552.59;5041350;28;20025;-67
2022/02/10 23:30:46;;;;;;;1.13;0.30;;;;;;;20.07;45.06;100553.72;5055290;28;20048;-66
2022/02/10 23:33:34;;;;;;;0.28;0.22;;;;;;;20.03;45.32;100552.41;5055852;28;20058;-66
2022/02/10 23:38:43;;;;;;;1.23;0.20;;;;;;;19.94;45.16;100554.38;5055571;28;20456;-67
2022/02/10 23:43:53;;;;;;;0.85;0.22;;;;;;;19.83;45.77;100553.00;5055263;28;20032;-66
2022/02/10 23:46:20;;;;;;;0.95;0.30;;;;;;;19.81;44.90;100559.63;5055480;28;20029;-66
2022/02/10 23:48:46;;;;;;;0.90;0.20;;;;;;;19.78;45.62;100560.88;5055022;28;20031;-66
2022/02/10 23:51:11;;;;;;;1.42;0.35;;;;;;;19.78;45.01;100560.03;5055382;28;20021;-66
2022/02/10 23:53:37;;;;;;;1.33;0.30;;;;;;;19.71;45.87;100575.44;5054893;28;20120;-67
2022/02/10 23:56:08;;;;;;;0.50;0.10;;;;;;;19.67;45.00;100571.41;5055258;28;20108;-66
